Time;durP1;ratioP1;P1;durP2;ratioP2;P2;SDS_P1;SDS_P2;PMS_P1;PMS_P2;Temp;Humidity;BMP_temperature;BMP_pressure;BME280_temperature;BME280_humidity;BME280_pressure;Samples;Min_cycle;Max_cycle;Signal;HPM_P1;HPM_P2
2023/07/10 00:01:05;;;;;;;88.18;54.03;;;21.10;75.00;;;;;;4978513;28;90103;-44
2023/07/10 00:03:31;;;;;;;88.32;54.25;;;21.10;75.00;;;;;;4982437;28;89633;-44
2023/07/10 00:05:58;;;;;;;87.28;54.08;;;21.10;75.10;;;;;;4983751;28;89619;-43
2023/07/10 00:08:24;;;;;;;87.25;54.13;;;21.10;75.00;;;;;;4972757;28;89876;-47
2023/07/10 00:10:50;;;;;;;87.55;53.85;;;21.00;74.90;;;;;;4984443;28;89693;-43
2023/07/10 00:13:21;;;;;;;89.63;54.33;;;21.00;75.10;;;;;;4984416;28;89658;-44
2023/07/10 00:15:48;;;;;;;87.35;53.92;;;21.00;75.00;;;;;;4984022;28;88826;-43
2023/07/10 00:18:17;;;;;;;87.78;53.85;;;21.00;75.00;;;;;;4982939;28;89473;-43
2023/07/10 00:20:45;;;;;;;88.97;54.22;;;21.00;75.10;;;;;;4979264;28;90291;-43
2023/07/10 00:23:11;;;;;;;87.10;54.10;;;20.90;75.10;;;;;;4984542;28;90991;-44
2023/07/10 00:25:37;;;;;;;87.78;54.15;;;20.90;75.20;;;;;;4982784;28;90147;-44
2023/07/10 00:28:13;;;;;;;88.95;54.65;;;20.90;75.10;;;;;;4973864;28;89763;-44
2023/07/10 00:30:38;;;;;;;87.70;54.20;;;20.90;75.20;;;;;;4972825;28;89877;-43
2023/07/10 00:46:45;;;;;;;86.38;53.65;;;20.70;75.60;;;;;;4158888;28;92686;-44
2023/07/10 00:49:15;;;;;;;87.95;53.80;;;20.70;75.60;;;;;;4973080;28;90057;-43
2023/07/10 00:51:50;;;;;;;86.68;53.80;;;20.70;75.70;;;;;;4977245;28;95220;-43
2023/07/10 00:54:39;;;;;;;89.70;53.95;;;20.60;75.70;;;;;;4969112;28;90703;-44
2023/07/10 00:57:10;;;;;;;87.97;53.97;;;20.60;75.70;;;;;;4976938;28;90009;-44
2023/07/10 00:59:39;;;;;;;;;;;20.60;75.70;;;;;;4978942;28;89969;-43
2023/07/10 01:02:07;;;;;;;87.88;54.20;;;20.60;75.90;;;;;;4980334;28;89660;-43
2023/07/10 01:04:41;;;;;;;87.47;53.80;;;20.50;75.90;;;;;;4975550;28;89393;-44
2023/07/10 01:07:10;;;;;;;88.00;53.85;;;20.50;75.70;;;;;;4976524;28;89477;-44
2023/07/10 01:09:36;;;;;;;86.80;53.78;;;20.50;75.80;;;;;;4979951;28;90175;-44
2023/07/10 01:12:03;;;;;;;87.25;53.95;;;20.50;75.90;;;;;;4980498;28;89661;-43
2023/07/10 01:14:34;;;;;;;87.53;53.85;;;20.50;75.90;;;;;;4982050;28;92395;-46
2023/07/10 01:17:01;;;;;;;;;;;20.40;76.10;;;;;;4986385;28;90553;-44
2023/07/10 01:19:27;;;;;;;86.53;53.67;;;20.40;76.10;;;;;;4982159;28;89325;-44
2023/07/10 01:21:53;;;;;;;87.03;53.63;;;20.40;76.10;;;;;;4975536;28;90713;-45
2023/07/10 01:24:19;;;;;;;87.57;54.08;;;20.30;76.40;;;;;;4977121;28;89668;-44
2023/07/10 01:26:45;;;;;;;86.50;53.72;;;20.30;76.20;;;;;;4979448;28;91684;-43
2023/07/10 01:29:35;;;;;;;87.10;53.78;;;20.30;76.30;;;;;;4983146;28;89484;-44
2023/07/10 01:32:21;;;;;;;86.22;53.85;;;20.30;76.40;;;;;;4979442;28;92021;-46
2023/07/10 01:34:56;;;;;;;88.57;53.67;;;20.30;76.50;;;;;;4983722;28;89400;-43
2023/07/10 01:37:22;;;;;;;88.10;54.10;;;20.20;76.60;;;;;;4984333;28;89570;-44
2023/07/10 01:39:50;;;;;;;86.97;53.70;;;20.20;76.50;;;;;;4976136;28;90609;-44
2023/07/10 01:42:16;;;;;;;87.63;53.75;;;20.20;76.70;;;;;;4976762;28;92388;-43
2023/07/10 01:44:44;;;;;;;86.80;53.88;;;20.20;76.90;;;;;;4975866;28;89964;-44
2023/07/10 01:47:12;;;;;;;86.45;53.92;;;20.10;76.60;;;;;;4974044;28;90224;-43
2023/07/10 01:49:38;;;;;;;87.38;54.13;;;20.10;76.80;;;;;;4972330;28;89669;-45
2023/07/10 01:52:08;;;;;;;86.60;53.90;;;20.10;77.00;;;;;;4969649;28;90265;-46
2023/07/10 01:54:34;;;;;;;87.30;54.03;;;20.10;76.70;;;;;;4970834;28;90872;-45
2023/07/10 01:57:00;;;;;;;86.50;54.17;;;20.00;76.80;;;;;;4974789;28;89450;-47
2023/07/10 01:59:25;;;;;;;87.60;53.65;;;20.00;76.80;;;;;;4978988;28;89267;-46
2023/07/10 02:01:53;;;;;;;86.00;53.75;;;20.00;76.70;;;;;;4975633;28;90673;-45
2023/07/10 02:11:25;;;;;;;87.07;53.40;;;19.90;76.80;;;;;;4973769;28;89694;-48
2023/07/10 02:13:51;;;;;;;86.18;53.72;;;19.90;76.90;;;;;;4977299;28;89879;-46
2023/07/10 02:16:16;;;;;;;87.45;53.78;;;19.90;77.10;;;;;;4978751;28;90958;-46
2023/07/10 02:18:42;;;;;;;86.50;54.10;;;19.80;77.10;;;;;;4978360;28;89617;-46
2023/07/10 02:21:08;;;;;;;87.18;53.70;;;19.80;77.10;;;;;;4961919;28;89527;-46
2023/07/10 02:23:37;;;;;;;87.22;53.85;;;19.80;76.90;;;;;;4972678;28;91298;-45
2023/07/10 02:26:03;;;;;;;85.75;53.35;;;19.70;77.00;;;;;;4978123;28;89334;-48
2023/07/10 02:28:28;;;;;;;85.50;53.40;;;19.70;77.20;;;;;;4979064;28;89877;-45
2023/07/10 02:30:54;;;;;;;86.60;53.70;;;19.70;77.30;;;;;;4977467;28;90102;-45
2023/07/10 02:33:20;;;;;;;86.90;54.00;;;19.70;77.10;;;;;;4981997;28;90716;-46
2023/07/10 02:35:46;;;;;;;86.82;53.63;;;19.70;77.10;;;;;;4980316;28;89872;-48
2023/07/10 02:38:12;;;;;;;86.15;53.65;;;19.70;77.10;;;;;;4986693;28;89824;-46
2023/07/10 02:40:38;;;;;;;86.85;53.83;;;19.60;77.10;;;;;;4984326;28;90340;-46
2023/07/10 02:43:04;;;;;;;86.05;53.75;;;19.60;77.10;;;;;;4978260;28;90685;-48
2023/07/10 02:45:30;;;;;;;86.38;53.70;;;19.60;77.20;;;;;;4982769;28;89966;-45
2023/07/10 02:47:55;;;;;;;85.78;53.63;;;19.60;77.30;;;;;;4977848;28;89498;-46
2023/07/10 02:50:21;;;;;;;85.95;53.67;;;19.50;77.20;;;;;;4974654;28;88694;-46
2023/07/10 02:52:47;;;;;;;86.45;54.00;;;19.50;77.30;;;;;;4981428;28;92437;-47
2023/07/10 02:55:12;;;;;;;86.18;53.85;;;19.50;77.30;;;;;;4971292;28;90456;-47
2023/07/10 02:57:38;;;;;;;86.00;53.65;;;19.50;77.50;;;;;;4977788;28;92834;-48
2023/07/10 03:00:04;;;;;;;86.90;53.63;;;19.50;77.60;;;;;;4975522;28;89849;-48
2023/07/10 03:02:30;;;;;;;86.68;54.00;;;19.40;77.50;;;;;;4982457;28;91175;-46
2023/07/10 03:04:56;;;;;;;86.38;53.75;;;19.40;77.50;;;;;;4977466;28;90733;-46
2023/07/10 03:07:21;;;;;;;85.72;53.80;;;19.40;77.50;;;;;;4975807;28;89703;-46
2023/07/10 03:09:47;;;;;;;85.70;53.67;;;19.40;77.60;;;;;;4971652;28;92261;-46
2023/07/10 03:12:13;;;;;;;85.43;53.70;;;19.40;77.70;;;;;;4978200;28;91579;-45
2023/07/10 03:14:39;;;;;;;86.53;53.47;;;19.40;78.30;;;;;;4975418;28;89644;-47
2023/07/10 03:17:04;;;;;;;86.32;53.45;;;19.30;77.60;;;;;;4974724;28;90447;-46
2023/07/10 03:19:31;;;;;;;92.70;53.78;;;19.30;77.70;;;;;;4976976;28;92035;-45
2023/07/10 03:21:57;;;;;;;85.70;53.45;;;19.30;77.60;;;;;;4973110;28;91131;-46
2023/07/10 03:24:24;;;;;;;86.00;53.63;;;19.30;77.60;;;;;;4980575;28;89932;-47
2023/07/10 03:26:49;;;;;;;84.78;53.40;;;19.20;77.40;;;;;;4977536;28;90617;-44
2023/07/10 03:29:16;;;;;;;87.32;53.42;;;19.20;77.70;;;;;;4978754;28;90788;-46
2023/07/10 03:31:42;;;;;;;85.60;53.67;;;19.20;77.70;;;;;;4977530;28;89620;-45
2023/07/10 03:34:10;;;;;;;87.63;53.42;;;19.20;77.80;;;;;;4980037;28;89445;-45
2023/07/10 03:36:36;;;;;;;85.15;53.15;;;19.20;77.80;;;;;;4949940;28;89792;-45
2023/07/10 03:39:02;;;;;;;88.57;53.20;;;19.20;77.80;;;;;;4975443;28;89139;-46
2023/07/10 03:41:27;;;;;;;86.20;53.35;;;19.20;77.70;;;;;;4974655;28;90457;-46
2023/07/10 03:43:53;;;;;;;85.07;53.25;;;19.10;77.50;;;;;;4979207;28;90133;-46
2023/07/10 03:46:19;;;;;;;85.20;53.30;;;19.10;77.70;;;;;;4975935;28;91632;-49
2023/07/10 03:48:45;;;;;;;86.40;53.72;;;19.10;77.70;;;;;;4975168;28;90129;-46
2023/07/10 03:51:10;;;;;;;85.15;53.25;;;19.10;77.70;;;;;;4977072;28;90262;-45
2023/07/10 03:53:36;;;;;;;84.90;53.40;;;19.00;77.60;;;;;;4978733;28;90525;-46
2023/07/10 03:56:02;;;;;;;85.53;53.40;;;19.00;77.60;;;;;;4973426;28;90328;-45
2023/07/10 03:58:30;;;;;;;86.07;53.35;;;19.00;78.40;;;;;;4975026;28;89527;-46
2023/07/10 04:00:57;;;;;;;85.13;53.65;;;19.00;77.90;;;;;;4960612;28;89616;-45
2023/07/10 04:03:26;;;;;;;87.22;53.75;;;19.00;77.80;;;;;;4982306;28;89660;-46
2023/07/10 04:05:54;;;;;;;85.28;53.42;;;19.00;77.80;;;;;;4981618;28;89673;-46
2023/07/10 04:08:20;;;;;;;86.65;53.58;;;19.00;77.80;;;;;;4984401;28;89745;-48
2023/07/10 04:10:53;;;;;;;85.03;53.42;;;19.00;77.60;;;;;;4976077;28;91006;-45
2023/07/10 04:13:20;;;;;;;84.78;53.47;;;19.00;77.80;;;;;;4979953;28;90906;-47
2023/07/10 04:16:19;;;;;;;85.82;53.45;;;19.00;77.60;;;;;;4982859;28;89832;-47
2023/07/10 04:18:46;;;;;;;86.15;53.40;;;19.00;78.10;;;;;;4935864;28;89866;-48
2023/07/10 04:21:18;;;;;;;87.25;53.83;;;19.00;78.30;;;;;;4976942;28;90022;-49
2023/07/10 04:23:44;;;;;;;85.55;54.03;;;19.00;78.10;;;;;;4980682;28;89505;-47
2023/07/10 04:26:22;;;;;;;85.00;53.50;;;19.00;77.90;;;;;;4981937;28;91536;-45
2023/07/10 04:28:53;;;;;;;86.45;53.63;;;18.90;77.70;;;;;;4971074;28;89281;-44
2023/07/10 04:31:19;;;;;;;86.78;53.65;;;18.90;77.90;;;;;;4980167;28;90226;-48
2023/07/10 04:33:45;;;;;;;86.28;53.65;;;19.00;79.10;;;;;;4978090;28;89759;-48
2023/07/10 04:36:11;;;;;;;85.07;53.55;;;19.00;79.00;;;;;;4972097;28;91127;-44
2023/07/10 04:38:37;;;;;;;85.25;53.63;;;18.90;78.10;;;;;;4978069;28;89867;-45
2023/07/10 04:41:05;;;;;;;86.03;53.58;;;19.00;78.00;;;;;;4979369;28;90436;-46
2023/07/10 04:43:33;;;;;;;86.78;53.83;;;19.00;78.10;;;;;;4980663;28;89906;-46
2023/07/10 04:46:03;;;;;;;84.95;53.60;;;19.00;77.80;;;;;;4977355;28;89609;-46
2023/07/10 04:48:30;;;;;;;85.15;53.55;;;19.10;77.80;;;;;;4974402;28;89780;-45
2023/07/10 04:50:57;;;;;;;86.05;53.97;;;19.00;77.90;;;;;;4970597;28;89978;-47
2023/07/10 04:53:23;;;;;;;85.90;53.70;;;19.10;78.10;;;;;;4982055;28;89813;-46
2023/07/10 04:55:51;;;;;;;86.82;53.83;;;19.10;77.90;;;;;;4971492;28;90869;-46
2023/07/10 04:58:18;;;;;;;84.80;53.65;;;19.10;78.00;;;;;;4974949;28;90091;-45
2023/07/10 05:00:43;;;;;;;87.10;54.03;;;19.10;78.20;;;;;;4976868;28;90611;-44
2023/07/10 05:03:10;;;;;;;86.13;53.90;;;19.20;78.10;;;;;;4978194;28;90859;-46
2023/07/10 05:05:36;;;;;;;85.43;54.00;;;19.20;78.00;;;;;;4985235;28;89499;-47
2023/07/10 05:08:02;;;;;;;85.65;53.47;;;19.20;78.00;;;;;;4980645;28;89865;-47
2023/07/10 05:10:28;;;;;;;86.38;53.70;;;19.20;78.20;;;;;;4978827;28;93627;-48
2023/07/10 05:12:54;;;;;;;86.10;53.78;;;19.20;78.00;;;;;;4981691;28;91378;-46
2023/07/10 05:15:20;;;;;;;86.43;53.72;;;19.30;77.50;;;;;;4981695;28;89626;-46
2023/07/10 05:17:46;;;;;;;85.57;53.70;;;19.30;77.30;;;;;;4988716;28;91947;-46
2023/07/10 05:20:12;;;;;;;85.90;53.67;;;19.30;77.80;;;;;;4977701;28;90033;-45
2023/07/10 05:22:37;;;;;;;90.18;53.88;;;19.30;77.60;;;;;;4987618;28;89853;-46
2023/07/10 05:25:03;;;;;;;86.57;54.03;;;19.40;78.00;;;;;;4974234;28;90657;-48
2023/07/10 05:27:29;;;;;;;87.07;54.05;;;19.40;78.60;;;;;;4983823;28;89807;-46
2023/07/10 05:29:54;;;;;;;86.65;53.83;;;19.50;77.10;;;;;;4977170;28;89682;-49
2023/07/10 05:32:20;;;;;;;85.97;54.17;;;19.50;78.00;;;;;;4977868;28;91164;-45
2023/07/10 05:34:46;;;;;;;87.93;53.83;;;19.50;77.90;;;;;;4980692;28;89628;-51
2023/07/10 05:37:12;;;;;;;85.43;53.50;;;19.50;78.30;;;;;;4975295;28;92440;-49
2023/07/10 05:39:37;;;;;;;86.05;53.38;;;19.60;78.10;;;;;;4980850;28;93401;-45
2023/07/10 05:42:03;;;;;;;85.80;53.50;;;19.60;77.40;;;;;;4979164;28;89675;-46
2023/07/10 05:44:29;;;;;;;85.72;53.60;;;19.60;77.90;;;;;;4977117;28;89538;-46
2023/07/10 05:46:56;;;;;;;86.75;53.85;;;19.70;77.40;;;;;;4976232;28;90142;-45
2023/07/10 05:49:23;;;;;;;85.88;53.83;;;19.70;77.00;;;;;;4969284;28;92209;-46
2023/07/10 05:51:50;;;;;;;87.03;53.78;;;19.80;77.00;;;;;;4977452;28;89755;-45
2023/07/10 05:54:16;;;;;;;85.95;53.95;;;19.80;76.60;;;;;;4975856;28;89584;-49
2023/07/10 05:56:41;;;;;;;86.47;53.85;;;19.80;76.10;;;;;;4972959;28;89659;-45
2023/07/10 05:59:11;;;;;;;86.95;54.13;;;19.90;75.80;;;;;;4976486;28;90203;-47
2023/07/10 06:01:37;;;;;;;85.95;53.75;;;20.00;76.00;;;;;;4979891;28;90037;-47
2023/07/10 06:04:03;;;;;;;87.10;54.30;;;20.00;77.80;;;;;;4977632;28;93759;-47
2023/07/10 06:06:28;;;;;;;87.32;54.35;;;20.00;75.00;;;;;;4982017;28;89310;-46
2023/07/10 06:08:54;;;;;;;86.25;53.85;;;20.10;74.40;;;;;;4985376;28;89992;-46
2023/07/10 06:11:19;;;;;;;88.57;53.97;;;20.10;76.40;;;;;;4974631;28;89128;-45
2023/07/10 06:13:45;;;;;;;87.00;54.33;;;20.20;76.10;;;;;;4979118;28;91006;-47
2023/07/10 06:16:11;;;;;;;88.47;54.17;;;20.20;75.30;;;;;;4980330;28;90340;-45
2023/07/10 06:18:38;;;;;;;86.80;54.13;;;20.30;74.40;;;;;;4980099;28;91275;-49
2023/07/10 06:21:04;;;;;;;88.05;54.00;;;20.30;74.60;;;;;;4981683;28;89867;-48
2023/07/10 06:23:30;;;;;;;86.78;54.00;;;20.40;75.00;;;;;;4979244;28;89563;-45
2023/07/10 06:25:58;;;;;;;87.47;54.47;;;20.40;75.10;;;;;;4982741;28;89786;-47
2023/07/10 06:28:24;;;;;;;87.32;53.75;;;20.50;73.80;;;;;;4978826;28;89427;-44
2023/07/10 06:30:56;;;;;;;86.68;53.70;;;20.50;73.80;;;;;;4982246;28;89162;-44
2023/07/10 06:33:22;;;;;;;87.75;53.80;;;20.60;73.50;;;;;;4984751;28;89855;-44
2023/07/10 06:35:48;;;;;;;87.70;54.10;;;20.60;72.20;;;;;;4980556;28;89835;-44
2023/07/10 06:38:13;;;;;;;87.28;53.95;;;20.70;72.80;;;;;;4980893;28;90798;-44
2023/07/10 06:40:39;;;;;;;88.18;54.30;;;20.70;72.10;;;;;;4976586;28;90806;-43
2023/07/10 06:43:05;;;;;;;89.18;54.28;;;20.70;73.20;;;;;;4981142;28;89576;-43
2023/07/10 06:45:30;;;;;;;87.28;53.97;;;20.80;72.80;;;;;;4970658;28;89576;-43
2023/07/10 06:47:56;;;;;;;87.10;54.17;;;20.80;72.10;;;;;;4970175;28;90006;-47
2023/07/10 06:50:21;;;;;;;88.20;54.45;;;20.90;75.70;;;;;;4970942;28;93272;-47
2023/07/10 06:52:47;;;;;;;87.15;53.85;;;20.90;72.50;;;;;;4975446;28;89543;-45
2023/07/10 06:55:17;;;;;;;88.20;54.47;;;20.90;71.60;;;;;;4979368;28;89088;-47
2023/07/10 06:57:43;;;;;;;87.83;54.33;;;21.00;72.60;;;;;;4975177;28;89551;-45
2023/07/10 07:00:11;;;;;;;86.97;53.95;;;21.00;71.70;;;;;;4977920;28;89523;-45
2023/07/10 07:02:37;;;;;;;86.95;53.78;;;21.10;72.10;;;;;;4981521;28;90967;-45
2023/07/10 07:05:04;;;;;;;87.35;54.17;;;21.10;71.20;;;;;;4972643;28;89707;-46
2023/07/10 07:07:30;;;;;;;87.05;54.40;;;21.10;72.10;;;;;;4972387;28;91729;-46
2023/07/10 07:09:55;;;;;;;87.20;54.05;;;21.20;71.70;;;;;;4975527;28;89519;-45
2023/07/10 07:12:21;;;;;;;89.88;54.42;;;21.20;70.90;;;;;;4970583;28;91363;-45
2023/07/10 07:14:47;;;;;;;89.15;54.50;;;21.30;72.00;;;;;;4976183;28;89869;-45
2023/07/10 07:17:14;;;;;;;88.05;54.53;;;21.30;71.40;;;;;;4980238;28;89813;-45
2023/07/10 07:19:41;;;;;;;88.55;54.47;;;21.30;71.20;;;;;;4978740;28;89839;-44
2023/07/10 07:22:07;;;;;;;89.13;54.60;;;21.40;71.50;;;;;;4982241;28;89690;-47
2023/07/10 07:24:32;;;;;;;89.30;54.50;;;21.40;73.10;;;;;;4978338;28;89691;-44
2023/07/10 07:26:59;;;;;;;88.68;54.50;;;21.50;72.70;;;;;;4974324;28;92204;-45
2023/07/10 07:29:26;;;;;;;87.68;54.47;;;21.50;72.10;;;;;;4982569;28;92775;-44
2023/07/10 07:31:52;;;;;;;91.22;54.75;;;21.60;72.30;;;;;;4971156;28;89541;-46
2023/07/10 07:34:17;;;;;;;89.28;54.78;;;21.60;72.10;;;;;;4971900;28;90320;-44
2023/07/10 07:36:43;;;;;;;89.43;54.47;;;21.70;68.90;;;;;;4971930;28;89529;-44
2023/07/10 07:39:09;;;;;;;91.47;55.10;;;21.80;67.90;;;;;;4974069;28;89942;-43
2023/07/10 07:41:34;;;;;;;93.80;55.95;;;21.90;67.30;;;;;;4968922;28;92087;-44
2023/07/10 07:44:01;;;;;;;94.10;55.38;;;22.00;67.40;;;;;;4971373;28;88839;-45
2023/07/10 07:46:28;;;;;;;90.47;54.88;;;22.00;66.30;;;;;;4972041;28;90554;-45
2023/07/10 07:48:54;;;;;;;90.93;54.90;;;22.00;66.80;;;;;;4971923;28;89601;-43
2023/07/10 07:51:19;;;;;;;88.88;54.70;;;22.00;66.50;;;;;;4959122;28;90698;-43
2023/07/10 07:53:45;;;;;;;90.25;54.58;;;22.10;65.20;;;;;;4985672;28;92127;-43
2023/07/10 07:56:12;;;;;;;90.00;54.95;;;22.20;66.20;;;;;;4973313;28;90050;-44
2023/07/10 07:58:38;;;;;;;90.50;54.92;;;22.20;65.40;;;;;;4975697;28;90018;-44
2023/07/10 08:01:04;;;;;;;93.35;54.63;;;22.30;66.60;;;;;;4984071;28;89791;-43
2023/07/10 08:03:30;;;;;;;90.55;54.88;;;22.30;65.90;;;;;;4976409;28;94199;-45
2023/07/10 08:05:56;;;;;;;89.70;54.50;;;22.30;64.00;;;;;;4968966;28;90231;-43
2023/07/10 08:08:22;;;;;;;89.38;54.88;;;22.40;65.10;;;;;;4980213;28;89377;-43
2023/07/10 08:10:49;;;;;;;92.80;55.05;;;22.40;65.90;;;;;;4981074;28;89348;-45
2023/07/10 08:13:17;;;;;;;89.85;55.25;;;22.50;66.20;;;;;;4963572;28;90401;-42
2023/07/10 08:15:43;;;;;;;91.20;54.72;;;22.50;65.70;;;;;;4967771;28;90928;-43
2023/07/10 08:18:09;;;;;;;93.75;54.65;;;22.50;66.70;;;;;;4978492;28;92095;-42
2023/07/10 08:20:35;;;;;;;92.75;55.17;;;22.60;66.60;;;;;;4969832;28;90525;-43
2023/07/10 08:23:02;;;;;;;89.72;54.65;;;22.70;66.40;;;;;;4970157;28;90015;-43
2023/07/10 08:25:28;;;;;;;90.00;54.80;;;22.70;65.50;;;;;;4974357;28;90299;-45
2023/07/10 08:27:53;;;;;;;91.20;54.58;;;22.70;65.00;;;;;;4972825;28;90252;-43
2023/07/10 08:30:19;;;;;;;92.07;54.78;;;22.80;64.00;;;;;;4969638;28;89626;-44
2023/07/10 08:32:44;;;;;;;91.22;54.78;;;22.70;64.10;;;;;;4972078;28;88754;-44
2023/07/10 08:35:10;;;;;;;90.18;54.55;;;22.80;65.10;;;;;;4972824;28;91124;-43
2023/07/10 08:37:37;;;;;;;88.90;54.55;;;22.80;64.40;;;;;;4966722;28;89836;-43
2023/07/10 08:40:10;;;;;;;89.32;54.80;;;22.80;63.10;;;;;;4962371;28;91848;-43
2023/07/10 08:42:36;;;;;;;93.07;55.38;;;22.80;63.00;;;;;;4973715;28;90488;-43
2023/07/10 08:45:02;;;;;;;90.20;54.78;;;22.90;63.50;;;;;;4976314;28;91182;-43
2023/07/10 08:47:36;;;;;;;92.82;54.97;;;22.90;63.10;;;;;;4973078;28;90050;-44
2023/07/10 08:50:24;;;;;;;88.97;54.72;;;23.00;63.50;;;;;;4976660;28;90492;-44
2023/07/10 08:53:07;;;;;;;100.47;55.92;;;23.00;63.30;;;;;;4972681;28;90622;-44
2023/07/10 08:55:42;;;;;;;96.00;56.08;;;23.10;61.60;;;;;;4972604;28;90302;-43
2023/07/10 08:58:24;;;;;;;95.25;56.13;;;23.10;63.10;;;;;;4971166;28;90422;-44
2023/07/10 09:00:56;;;;;;;92.85;55.30;;;23.10;62.00;;;;;;4969946;28;89571;-44
2023/07/10 09:03:44;;;;;;;96.00;55.83;;;23.20;62.80;;;;;;4970955;28;89993;-43
2023/07/10 09:06:25;;;;;;;93.00;55.88;;;23.30;62.70;;;;;;4976906;28;92358;-44
2023/07/10 09:08:53;;;;;;;95.15;56.25;;;23.40;62.50;;;;;;4975653;28;94831;-43
2023/07/10 09:11:20;;;;;;;97.43;55.97;;;23.50;63.10;;;;;;4968127;28;91917;-44
2023/07/10 09:14:30;;;;;;;95.95;56.15;;;23.60;62.60;;;;;;4975222;28;90026;-43
2023/07/10 09:16:58;;;;;;;93.30;56.30;;;23.70;63.10;;;;;;4909286;28;94397;-44
2023/07/10 09:19:23;;;;;;;96.60;56.63;;;23.80;61.10;;;;;;4912560;28;90823;-43
2023/07/10 09:21:49;;;;;;;98.20;56.42;;;23.80;62.90;;;;;;4937021;28;89835;-45
2023/07/10 09:24:22;;;;;;;114.93;58.28;;;23.70;63.70;;;;;;4969051;28;89131;-43
2023/07/10 09:26:49;;;;;;;171.85;63.80;;;23.80;64.10;;;;;;4978440;28;90235;-45
2023/07/10 09:29:28;;;;;;;116.72;60.03;;;23.80;62.10;;;;;;4966580;28;90357;-43
2023/07/10 09:32:19;;;;;;;104.00;57.78;;;23.80;62.70;;;;;;4971194;28;90685;-44
2023/07/10 09:34:48;;;;;;;97.53;57.45;;;23.90;62.90;;;;;;4975211;28;89794;-44
2023/07/10 09:37:17;;;;;;;103.85;57.50;;;24.10;64.30;;;;;;4965701;28;89493;-45
2023/07/10 09:39:43;;;;;;;102.32;57.30;;;24.10;63.00;;;;;;4969397;28;89840;-46
2023/07/10 09:42:16;;;;;;;99.50;56.80;;;24.10;63.70;;;;;;4963704;28;96751;-44
2023/07/10 09:44:50;;;;;;;94.10;56.13;;;24.20;63.90;;;;;;4961482;28;91593;-44
2023/07/10 09:47:17;;;;;;;95.72;56.78;;;24.20;62.70;;;;;;4963868;28;91098;-45
2023/07/10 09:49:53;;;;;;;96.50;57.00;;;24.30;61.90;;;;;;4970762;28;89045;-47
2023/07/10 09:52:31;;;;;;;97.30;56.50;;;24.30;61.50;;;;;;4977366;28;89528;-45
2023/07/10 09:55:01;;;;;;;96.97;57.15;;;24.40;61.60;;;;;;4985374;28;89408;-43
2023/07/10 09:57:27;;;;;;;94.00;56.65;;;24.40;62.30;;;;;;4979241;28;90342;-45
2023/07/10 09:59:55;;;;;;;96.15;56.85;;;24.50;63.60;;;;;;4980861;28;90428;-44
2023/07/10 10:02:20;;;;;;;97.35;56.83;;;24.50;62.20;;;;;;4974746;28;92030;-43
2023/07/10 10:04:53;;;;;;;98.32;56.70;;;24.50;61.90;;;;;;4984109;28;89823;-44
2023/07/10 10:07:21;;;;;;;95.28;56.58;;;24.60;61.10;;;;;;4966517;28;90019;-44
2023/07/10 10:09:47;;;;;;;96.25;56.50;;;24.70;60.90;;;;;;4973558;28;89943;-46
2023/07/10 10:12:29;;;;;;;99.30;56.75;;;24.70;64.70;;;;;;4974113;28;89774;-47
2023/07/10 10:15:06;;;;;;;92.07;56.25;;;24.60;65.30;;;;;;4972558;28;88948;-46
2023/07/10 10:17:36;;;;;;;96.45;56.83;;;24.60;66.00;;;;;;4934424;28;92657;-41
2023/07/10 10:20:13;;;;;;;;;;;24.60;66.30;;;;;;4972058;28;89665;-40
2023/07/10 10:22:39;;;;;;;96.00;56.90;;;24.60;66.10;;;;;;4968616;28;92088;-41
2023/07/10 10:25:14;;;;;;;98.28;57.50;;;24.60;66.10;;;;;;4965265;28;90122;-40
2023/07/10 10:27:45;;;;;;;97.05;56.63;;;24.70;65.90;;;;;;4967468;28;89685;-41
2023/07/10 10:30:10;;;;;;;99.25;57.20;;;24.70;65.70;;;;;;4964647;28;92448;-40
2023/07/10 10:33:15;;;;;;;95.30;56.47;;;24.70;65.80;;;;;;4968462;28;90833;-41
2023/07/10 10:36:00;;;;;;;95.25;56.72;;;24.70;66.50;;;;;;4964648;28;92228;-41
2023/07/10 10:38:43;;;;;;;94.07;56.33;;;24.80;65.70;;;;;;4964295;28;92015;-41
2023/07/10 10:41:31;;;;;;;99.03;56.88;;;24.80;64.90;;;;;;4968073;28;89895;-41
2023/07/10 10:44:14;;;;;;;93.30;56.15;;;24.90;63.80;;;;;;4963334;28;89840;-41
2023/07/10 10:47:00;;;;;;;96.38;56.58;;;24.90;64.90;;;;;;4966346;28;91457;-42
2023/07/10 10:49:28;;;;;;;93.40;56.53;;;24.90;64.60;;;;;;4963511;28;90614;-41
2023/07/10 10:52:05;;;;;;;93.78;56.22;;;24.80;65.40;;;;;;4973921;28;91225;-41
2023/07/10 10:54:51;;;;;;;94.18;56.58;;;24.80;64.70;;;;;;4978911;28;89585;-42
2023/07/10 10:57:42;;;;;;;96.43;56.83;;;24.90;64.50;;;;;;4971590;28;91451;-43
2023/07/10 11:00:45;;;;;;;91.85;55.88;;;24.90;64.40;;;;;;4954638;28;90050;-42
2023/07/10 11:03:23;;;;;;;96.25;57.00;;;24.90;64.40;;;;;;4975870;28;89679;-41
2023/07/10 11:05:52;;;;;;;94.88;56.47;;;24.90;63.30;;;;;;4973481;28;91222;-42
2023/07/10 11:08:40;;;;;;;95.22;56.15;;;24.90;65.60;;;;;;4971636;28;91327;-48
2023/07/10 11:11:14;;;;;;;92.60;55.95;;;24.90;65.10;;;;;;4972237;28;90254;-45
2023/07/10 11:13:40;;;;;;;94.85;56.30;;;25.00;65.30;;;;;;4978328;28;91346;-45
2023/07/10 11:16:07;;;;;;;92.43;55.88;;;25.00;64.80;;;;;;4966650;28;91843;-43
2023/07/10 11:18:34;;;;;;;94.32;56.58;;;25.00;65.00;;;;;;4974344;28;89802;-44
2023/07/10 11:21:01;;;;;;;93.75;56.70;;;25.00;64.80;;;;;;4968594;28;90353;-45
2023/07/10 11:23:35;;;;;;;92.38;56.47;;;25.00;62.30;;;;;;4977062;28;90073;-45
2023/07/10 11:26:14;;;;;;;92.10;55.70;;;25.00;65.30;;;;;;4980260;28;89657;-43
2023/07/10 11:28:59;;;;;;;91.57;55.90;;;25.00;65.40;;;;;;4987311;28;90100;-46
2023/07/10 11:31:31;;;;;;;93.93;56.28;;;25.00;65.20;;;;;;4955357;28;89697;-45
2023/07/10 11:34:05;;;;;;;94.05;56.50;;;25.00;64.40;;;;;;4963879;28;89784;-44
2023/07/10 11:36:34;;;;;;;92.43;55.88;;;25.00;63.60;;;;;;4971569;28;89837;-43
2023/07/10 11:39:05;;;;;;;93.78;56.25;;;25.00;64.50;;;;;;4974052;28;90245;-45
2023/07/10 11:41:35;;;;;;;94.03;56.17;;;25.00;62.90;;;;;;4964692;28;90666;-43
2023/07/10 11:44:32;;;;;;;96.28;56.10;;;25.00;63.50;;;;;;4971377;28;92118;-48
2023/07/10 11:47:00;;;;;;;95.13;56.45;;;25.00;63.10;;;;;;4977869;28;90002;-45
2023/07/10 11:49:35;;;;;;;96.00;56.53;;;25.00;63.00;;;;;;4970313;28;90906;-45
2023/07/10 11:52:16;;;;;;;95.85;56.47;;;25.00;62.80;;;;;;4974949;28;93409;-45
2023/07/10 11:54:48;;;;;;;91.43;55.60;;;25.00;63.80;;;;;;4977499;28;89494;-45
2023/07/10 11:57:15;;;;;;;93.45;55.72;;;25.10;66.20;;;;;;4977330;28;89664;-55
2023/07/10 12:00:02;;;;;;;92.57;56.15;;;25.00;66.20;;;;;;4970588;28;89132;-44
2023/07/10 12:02:48;;;;;;;98.63;56.45;;;25.10;65.20;;;;;;4966754;28;91053;-44
2023/07/10 12:05:20;;;;;;;99.07;56.63;;;25.10;64.30;;;;;;4968189;28;89430;-43
2023/07/10 12:08:09;;;;;;;93.88;56.28;;;25.10;64.50;;;;;;4964429;28;94697;-43
2023/07/10 12:10:37;;;;;;;95.15;56.13;;;25.10;65.00;;;;;;4962445;28;90108;-44
2023/07/10 12:13:21;;;;;;;91.95;56.00;;;25.20;64.00;;;;;;4968782;28;94179;-45
2023/07/10 12:15:49;;;;;;;94.70;56.25;;;25.10;65.40;;;;;;4969437;28;90354;-44
2023/07/10 12:18:22;;;;;;;95.22;56.42;;;25.10;65.60;;;;;;4969507;28;92615;-43
2023/07/10 12:20:50;;;;;;;95.22;56.15;;;25.20;65.30;;;;;;4957198;28;90591;-46
2023/07/10 12:23:16;;;;;;;96.13;56.20;;;25.20;65.90;;;;;;4961838;28;91478;-46
2023/07/10 12:25:50;;;;;;;97.40;56.45;;;25.20;65.10;;;;;;4968808;28;92322;-45
2023/07/10 12:28:18;;;;;;;93.57;55.85;;;25.20;65.10;;;;;;4964637;28;90120;-44
2023/07/10 12:30:48;;;;;;;95.88;56.60;;;25.20;65.20;;;;;;4973295;28;90328;-46
2023/07/10 12:33:25;;;;;;;92.53;55.72;;;25.30;64.50;;;;;;4977962;28;91412;-45
2023/07/10 12:35:51;;;;;;;92.38;56.28;;;25.30;64.60;;;;;;4972227;28;90295;-43
2023/07/10 12:38:17;;;;;;;91.15;55.80;;;25.30;64.30;;;;;;4966667;28;90119;-43
2023/07/10 12:40:43;;;;;;;95.45;56.70;;;25.30;65.70;;;;;;4975136;28;89803;-42
2023/07/10 12:43:23;;;;;;;96.45;56.65;;;25.40;63.70;;;;;;4972278;28;90176;-40
2023/07/10 12:46:11;;;;;;;95.53;56.17;;;25.40;65.30;;;;;;4967764;28;89729;-42
2023/07/10 12:48:37;;;;;;;93.05;55.88;;;25.40;65.40;;;;;;4954583;28;89581;-42
2023/07/10 12:51:05;;;;;;;92.60;56.33;;;25.40;65.70;;;;;;4968320;28;89006;-43
2023/07/10 12:53:37;;;;;;;96.13;56.17;;;25.50;64.70;;;;;;4971186;28;90925;-42
2023/07/10 12:56:20;;;;;;;92.55;56.03;;;25.50;65.30;;;;;;4969064;28;90400;-44
2023/07/10 12:58:48;;;;;;;93.85;56.30;;;25.50;65.60;;;;;;4968557;28;93161;-43
2023/07/10 13:01:25;;;;;;;91.80;56.17;;;25.50;64.60;;;;;;4969049;28;90145;-43